sensor_id;sensor_type;location;lat;lon;timestamp;P1;durP1;ratioP1;P2;durP2;ratioP2
20415;SDS011;10367;52.202;5.996;2024-03-02T00:02:04;16.67;;;11.93;;
20415;SDS011;10367;52.202;5.996;2024-03-02T00:04:34;12.97;;;10.83;;
20415;SDS011;10367;52.202;5.996;2024-03-02T00:07:04;16.23;;;12.60;;
20415;SDS011;10367;52.202;5.996;2024-03-02T00:09:34;15.87;;;11.87;;
20415;SDS011;10367;52.202;5.996;2024-03-02T00:12:04;16.40;;;11.10;;
20415;SDS011;10367;52.202;5.996;2024-03-02T00:14:33;12.87;;;11.53;;
20415;SDS011;10367;52.202;5.996;2024-03-02T00:17:04;11.03;;;10.13;;
20415;SDS011;10367;52.202;5.996;2024-03-02T00:19:46;16.87;;;11.40;;
20415;SDS011;10367;52.202;5.996;2024-03-02T00:22:14;19.27;;;13.10;;
20415;SDS011;10367;52.202;5.996;2024-03-02T00:24:43;16.80;;;11.87;;
20415;SDS011;10367;52.202;5.996;2024-03-02T00:27:12;13.27;;;9.87;;
20415;SDS011;10367;52.202;5.996;2024-03-02T00:29:44;19.00;;;12.90;;
20415;SDS011;10367;52.202;5.996;2024-03-02T00:32:13;12.40;;;10.70;;
20415;SDS011;10367;52.202;5.996;2024-03-02T00:34:44;17.20;;;12.33;;
20415;SDS011;10367;52.202;5.996;2024-03-02T00:37:13;15.30;;;11.97;;
20415;SDS011;10367;52.202;5.996;2024-03-02T00:39:42;11.40;;;10.00;;
20415;SDS011;10367;52.202;5.996;2024-03-02T00:42:11;15.63;;;11.83;;
20415;SDS011;10367;52.202;5.996;2024-03-02T00:44:40;12.77;;;11.03;;
20415;SDS011;10367;52.202;5.996;2024-03-02T00:47:10;14.10;;;11.47;;
20415;SDS011;10367;52.202;5.996;2024-03-02T00:49:39;14.33;;;11.73;;
20415;SDS011;10367;52.202;5.996;2024-03-02T00:52:08;11.20;;;9.80;;
20415;SDS011;10367;52.202;5.996;2024-03-02T00:54:37;12.17;;;10.90;;
20415;SDS011;10367;52.202;5.996;2024-03-02T00:57:05;12.63;;;11.30;;
20415;SDS011;10367;52.202;5.996;2024-03-02T00:59:38;16.83;;;11.00;;
20415;SDS011;10367;52.202;5.996;2024-03-02T01:02:06;14.27;;;10.97;;
20415;SDS011;10367;52.202;5.996;2024-03-02T01:04:36;12.67;;;11.43;;
20415;SDS011;10367;52.202;5.996;2024-03-02T01:07:05;13.03;;;11.07;;
20415;SDS011;10367;52.202;5.996;2024-03-02T01:09:34;12.40;;;11.07;;
20415;SDS011;10367;52.202;5.996;2024-03-02T01:12:02;14.17;;;10.87;;
20415;SDS011;10367;52.202;5.996;2024-03-02T01:14:31;12.90;;;11.30;;
20415;SDS011;10367;52.202;5.996;2024-03-02T01:17:00;12.87;;;11.47;;
20415;SDS011;10367;52.202;5.996;2024-03-02T01:19:31;13.87;;;11.20;;
20415;SDS011;10367;52.202;5.996;2024-03-02T01:22:01;14.77;;;11.90;;
20415;SDS011;10367;52.202;5.996;2024-03-02T01:24:30;12.40;;;11.10;;
20415;SDS011;10367;52.202;5.996;2024-03-02T01:26:59;19.83;;;13.73;;
20415;SDS011;10367;52.202;5.996;2024-03-02T01:29:28;13.20;;;11.77;;
20415;SDS011;10367;52.202;5.996;2024-03-02T01:31:56;22.97;;;13.70;;
20415;SDS011;10367;52.202;5.996;2024-03-02T01:34:25;11.97;;;10.73;;
20415;SDS011;10367;52.202;5.996;2024-03-02T01:36:54;15.90;;;12.40;;
20415;SDS011;10367;52.202;5.996;2024-03-02T01:39:24;11.87;;;10.83;;
20415;SDS011;10367;52.202;5.996;2024-03-02T01:41:52;18.87;;;13.20;;
20415;SDS011;10367;52.202;5.996;2024-03-02T01:44:21;11.67;;;10.40;;
20415;SDS011;10367;52.202;5.996;2024-03-02T01:46:50;14.27;;;11.77;;
20415;SDS011;10367;52.202;5.996;2024-03-02T01:49:19;14.87;;;11.90;;
20415;SDS011;10367;52.202;5.996;2024-03-02T01:51:47;17.87;;;12.57;;
20415;SDS011;10367;52.202;5.996;2024-03-02T01:54:16;12.23;;;11.00;;
20415;SDS011;10367;52.202;5.996;2024-03-02T01:56:46;14.87;;;12.17;;
20415;SDS011;10367;52.202;5.996;2024-03-02T01:59:15;14.43;;;11.67;;
20415;SDS011;10367;52.202;5.996;2024-03-02T02:01:44;13.23;;;11.77;;
20415;SDS011;10367;52.202;5.996;2024-03-02T02:04:13;15.60;;;11.83;;
20415;SDS011;10367;52.202;5.996;2024-03-02T02:06:41;12.97;;;11.67;;
20415;SDS011;10367;52.202;5.996;2024-03-02T02:09:12;15.00;;;11.83;;
20415;SDS011;10367;52.202;5.996;2024-03-02T02:11:41;16.63;;;12.13;;
20415;SDS011;10367;52.202;5.996;2024-03-02T02:14:11;12.80;;;11.53;;
20415;SDS011;10367;52.202;5.996;2024-03-02T02:16:40;15.13;;;12.23;;
20415;SDS011;10367;52.202;5.996;2024-03-02T02:19:09;12.67;;;11.40;;
20415;SDS011;10367;52.202;5.996;2024-03-02T02:21:39;12.17;;;10.77;;
20415;SDS011;10367;52.202;5.996;2024-03-02T02:24:10;12.37;;;10.67;;
20415;SDS011;10367;52.202;5.996;2024-03-02T02:26:40;10.83;;;9.83;;
20415;SDS011;10367;52.202;5.996;2024-03-02T02:29:08;12.13;;;10.97;;
20415;SDS011;10367;52.202;5.996;2024-03-02T02:31:37;11.53;;;10.40;;
20415;SDS011;10367;52.202;5.996;2024-03-02T02:34:06;13.17;;;11.63;;
20415;SDS011;10367;52.202;5.996;2024-03-02T02:36:40;11.90;;;10.67;;
20415;SDS011;10367;52.202;5.996;2024-03-02T02:39:10;12.10;;;10.83;;
20415;SDS011;10367;52.202;5.996;2024-03-02T02:41:42;14.03;;;11.30;;
20415;SDS011;10367;52.202;5.996;2024-03-02T02:44:11;15.43;;;11.73;;
20415;SDS011;10367;52.202;5.996;2024-03-02T02:46:41;10.87;;;9.77;;
20415;SDS011;10367;52.202;5.996;2024-03-02T02:49:10;13.93;;;11.43;;
20415;SDS011;10367;52.202;5.996;2024-03-02T02:51:40;14.43;;;10.27;;
20415;SDS011;10367;52.202;5.996;2024-03-02T02:54:08;11.47;;;10.37;;
20415;SDS011;10367;52.202;5.996;2024-03-02T02:56:37;12.60;;;11.17;;
20415;SDS011;10367;52.202;5.996;2024-03-02T02:59:07;15.87;;;11.77;;
20415;SDS011;10367;52.202;5.996;2024-03-02T03:01:36;10.83;;;9.83;;
20415;SDS011;10367;52.202;5.996;2024-03-02T03:04:05;14.27;;;11.60;;
20415;SDS011;10367;52.202;5.996;2024-03-02T03:06:34;9.77;;;8.93;;
20415;SDS011;10367;52.202;5.996;2024-03-02T03:09:04;15.53;;;11.83;;
20415;SDS011;10367;52.202;5.996;2024-03-02T03:11:31;10.70;;;9.67;;
20415;SDS011;10367;52.202;5.996;2024-03-02T03:14:00;13.87;;;11.40;;
20415;SDS011;10367;52.202;5.996;2024-03-02T03:16:29;11.73;;;10.57;;
20415;SDS011;10367;52.202;5.996;2024-03-02T03:18:58;17.27;;;11.83;;
20415;SDS011;10367;52.202;5.996;2024-03-02T03:21:27;11.47;;;10.47;;
20415;SDS011;10367;52.202;5.996;2024-03-02T03:23:56;13.83;;;11.17;;
20415;SDS011;10367;52.202;5.996;2024-03-02T03:26:26;11.67;;;10.47;;
20415;SDS011;10367;52.202;5.996;2024-03-02T03:28:54;15.90;;;11.57;;
20415;SDS011;10367;52.202;5.996;2024-03-02T03:31:23;12.23;;;10.60;;
20415;SDS011;10367;52.202;5.996;2024-03-02T03:33:52;12.93;;;10.40;;
20415;SDS011;10367;52.202;5.996;2024-03-02T03:36:20;13.33;;;11.37;;
20415;SDS011;10367;52.202;5.996;2024-03-02T03:38:49;16.43;;;11.40;;
20415;SDS011;10367;52.202;5.996;2024-03-02T03:41:18;11.00;;;9.90;;
20415;SDS011;10367;52.202;5.996;2024-03-02T03:43:48;13.67;;;11.20;;
20415;SDS011;10367;52.202;5.996;2024-03-02T03:46:16;11.93;;;10.80;;
20415;SDS011;10367;52.202;5.996;2024-03-02T03:48:45;12.00;;;10.17;;
20415;SDS011;10367;52.202;5.996;2024-03-02T03:51:14;10.00;;;9.13;;
20415;SDS011;10367;52.202;5.996;2024-03-02T03:53:42;11.07;;;9.97;;
20415;SDS011;10367;52.202;5.996;2024-03-02T03:56:11;11.40;;;10.23;;
20415;SDS011;10367;52.202;5.996;2024-03-02T03:58:41;12.47;;;10.47;;
20415;SDS011;10367;52.202;5.996;2024-03-02T04:01:11;12.43;;;10.43;;
20415;SDS011;10367;52.202;5.996;2024-03-02T04:03:40;12.17;;;10.77;;
20415;SDS011;10367;52.202;5.996;2024-03-02T04:06:09;9.27;;;8.53;;
20415;SDS011;10367;52.202;5.996;2024-03-02T04:08:37;11.47;;;9.70;;
20415;SDS011;10367;52.202;5.996;2024-03-02T04:11:06;10.10;;;9.17;;
20415;SDS011;10367;52.202;5.996;2024-03-02T04:13:35;11.33;;;10.17;;
20415;SDS011;10367;52.202;5.996;2024-03-02T04:16:04;9.63;;;8.73;;
20415;SDS011;10367;52.202;5.996;2024-03-02T04:18:35;10.70;;;9.63;;
20415;SDS011;10367;52.202;5.996;2024-03-02T04:21:03;11.90;;;9.63;;
20415;SDS011;10367;52.202;5.996;2024-03-02T04:23:32;10.00;;;9.10;;
20415;SDS011;10367;52.202;5.996;2024-03-02T04:26:01;13.27;;;10.73;;
20415;SDS011;10367;52.202;5.996;2024-03-02T04:28:29;11.47;;;10.27;;
20415;SDS011;10367;52.202;5.996;2024-03-02T04:30:58;12.50;;;10.20;;
20415;SDS011;10367;52.202;5.996;2024-03-02T04:33:27;14.33;;;11.43;;
20415;SDS011;10367;52.202;5.996;2024-03-02T04:35:57;12.80;;;10.27;;
20415;SDS011;10367;52.202;5.996;2024-03-02T04:38:26;10.77;;;9.67;;
20415;SDS011;10367;52.202;5.996;2024-03-02T04:40:55;11.90;;;10.00;;
20415;SDS011;10367;52.202;5.996;2024-03-02T04:43:24;15.27;;;11.50;;
20415;SDS011;10367;52.202;5.996;2024-03-02T04:45:53;14.77;;;10.67;;
20415;SDS011;10367;52.202;5.996;2024-03-02T04:48:22;14.03;;;10.33;;
20415;SDS011;10367;52.202;5.996;2024-03-02T04:50:50;12.57;;;10.27;;
20415;SDS011;10367;52.202;5.996;2024-03-02T04:53:20;16.50;;;11.67;;
20415;SDS011;10367;52.202;5.996;2024-03-02T04:55:49;10.73;;;9.73;;
20415;SDS011;10367;52.202;5.996;2024-03-02T04:58:35;10.30;;;9.30;;
20415;SDS011;10367;52.202;5.996;2024-03-02T05:01:03;12.50;;;9.87;;
20415;SDS011;10367;52.202;5.996;2024-03-02T05:03:33;13.53;;;10.93;;
20415;SDS011;10367;52.202;5.996;2024-03-02T05:06:02;14.50;;;11.20;;
20415;SDS011;10367;52.202;5.996;2024-03-02T05:08:33;12.27;;;9.90;;
20415;SDS011;10367;52.202;5.996;2024-03-02T05:11:01;14.33;;;10.80;;
20415;SDS011;10367;52.202;5.996;2024-03-02T05:13:44;20.13;;;11.17;;
20415;SDS011;10367;52.202;5.996;2024-03-02T05:16:13;12.03;;;10.33;;
20415;SDS011;10367;52.202;5.996;2024-03-02T05:18:41;11.50;;;10.03;;
20415;SDS011;10367;52.202;5.996;2024-03-02T05:21:10;10.93;;;9.57;;
20415;SDS011;10367;52.202;5.996;2024-03-02T05:23:40;10.43;;;9.43;;
20415;SDS011;10367;52.202;5.996;2024-03-02T05:26:09;13.97;;;10.23;;
20415;SDS011;10367;52.202;5.996;2024-03-02T05:28:39;11.07;;;8.93;;
20415;SDS011;10367;52.202;5.996;2024-03-02T05:31:09;12.80;;;9.60;;
20415;SDS011;10367;52.202;5.996;2024-03-02T05:33:39;11.13;;;9.57;;
20415;SDS011;10367;52.202;5.996;2024-03-02T05:36:08;16.07;;;10.80;;
20415;SDS011;10367;52.202;5.996;2024-03-02T05:38:37;11.23;;;9.47;;
20415;SDS011;10367;52.202;5.996;2024-03-02T05:41:07;14.37;;;10.57;;
20415;SDS011;10367;52.202;5.996;2024-03-02T05:43:36;11.10;;;10.00;;
20415;SDS011;10367;52.202;5.996;2024-03-02T05:46:05;10.67;;;9.57;;
20415;SDS011;10367;52.202;5.996;2024-03-02T05:48:34;11.23;;;10.13;;
20415;SDS011;10367;52.202;5.996;2024-03-02T05:51:03;14.67;;;11.43;;
20415;SDS011;10367;52.202;5.996;2024-03-02T05:53:31;11.77;;;9.67;;
20415;SDS011;10367;52.202;5.996;2024-03-02T05:56:00;14.43;;;10.47;;
20415;SDS011;10367;52.202;5.996;2024-03-02T05:58:32;10.70;;;8.83;;
20415;SDS011;10367;52.202;5.996;2024-03-02T06:01:15;10.50;;;9.43;;
20415;SDS011;10367;52.202;5.996;2024-03-02T06:03:45;15.80;;;10.70;;
20415;SDS011;10367;52.202;5.996;2024-03-02T06:06:14;11.43;;;9.03;;
20415;SDS011;10367;52.202;5.996;2024-03-02T06:08:44;11.40;;;9.40;;
20415;SDS011;10367;52.202;5.996;2024-03-02T06:11:12;12.10;;;7.57;;
20415;SDS011;10367;52.202;5.996;2024-03-02T06:13:43;16.83;;;8.93;;
20415;SDS011;10367;52.202;5.996;2024-03-02T06:16:11;13.63;;;9.33;;
20415;SDS011;10367;52.202;5.996;2024-03-02T06:18:40;13.07;;;9.23;;
20415;SDS011;10367;52.202;5.996;2024-03-02T06:21:09;12.77;;;9.37;;
20415;SDS011;10367;52.202;5.996;2024-03-02T06:23:38;12.03;;;8.63;;
20415;SDS011;10367;52.202;5.996;2024-03-02T06:26:06;14.77;;;9.93;;
20415;SDS011;10367;52.202;5.996;2024-03-02T06:28:35;7.53;;;6.93;;
20415;SDS011;10367;52.202;5.996;2024-03-02T06:31:08;10.20;;;8.40;;
20415;SDS011;10367;52.202;5.996;2024-03-02T06:33:37;11.97;;;8.70;;
20415;SDS011;10367;52.202;5.996;2024-03-02T06:36:07;11.40;;;8.63;;
20415;SDS011;10367;52.202;5.996;2024-03-02T06:38:36;11.90;;;8.83;;
20415;SDS011;10367;52.202;5.996;2024-03-02T06:41:09;13.10;;;9.77;;
20415;SDS011;10367;52.202;5.996;2024-03-02T06:43:38;8.83;;;7.93;;
20415;SDS011;10367;52.202;5.996;2024-03-02T06:46:07;15.00;;;9.87;;
20415;SDS011;10367;52.202;5.996;2024-03-02T06:48:41;10.43;;;8.67;;
20415;SDS011;10367;52.202;5.996;2024-03-02T06:51:10;19.70;;;11.33;;
20415;SDS011;10367;52.202;5.996;2024-03-02T06:53:39;14.40;;;9.93;;
20415;SDS011;10367;52.202;5.996;2024-03-02T06:56:08;16.10;;;9.30;;
20415;SDS011;10367;52.202;5.996;2024-03-02T06:58:37;13.40;;;9.87;;
20415;SDS011;10367;52.202;5.996;2024-03-02T07:01:05;12.63;;;9.87;;
20415;SDS011;10367;52.202;5.996;2024-03-02T07:03:36;10.00;;;8.73;;
20415;SDS011;10367;52.202;5.996;2024-03-02T07:06:06;10.33;;;9.27;;
20415;SDS011;10367;52.202;5.996;2024-03-02T07:08:35;11.10;;;8.60;;
20415;SDS011;10367;52.202;5.996;2024-03-02T07:11:03;13.73;;;9.47;;
20415;SDS011;10367;52.202;5.996;2024-03-02T07:13:32;10.67;;;8.53;;
20415;SDS011;10367;52.202;5.996;2024-03-02T07:16:01;16.57;;;9.70;;
20415;SDS011;10367;52.202;5.996;2024-03-02T07:18:49;10.93;;;8.80;;
20415;SDS011;10367;52.202;5.996;2024-03-02T07:21:19;12.53;;;9.10;;
20415;SDS011;10367;52.202;5.996;2024-03-02T07:23:49;10.57;;;8.17;;
20415;SDS011;10367;52.202;5.996;2024-03-02T07:26:18;11.83;;;8.57;;
20415;SDS011;10367;52.202;5.996;2024-03-02T07:28:50;14.27;;;9.03;;
20415;SDS011;10367;52.202;5.996;2024-03-02T07:31:19;11.03;;;8.33;;
20415;SDS011;10367;52.202;5.996;2024-03-02T07:33:49;12.90;;;8.90;;
20415;SDS011;10367;52.202;5.996;2024-03-02T07:36:18;9.57;;;8.57;;
20415;SDS011;10367;52.202;5.996;2024-03-02T07:38:47;10.37;;;8.60;;
20415;SDS011;10367;52.202;5.996;2024-03-02T07:41:17;11.87;;;9.07;;
20415;SDS011;10367;52.202;5.996;2024-03-02T07:43:46;11.07;;;8.70;;
20415;SDS011;10367;52.202;5.996;2024-03-02T07:46:15;10.97;;;8.50;;
20415;SDS011;10367;52.202;5.996;2024-03-02T07:48:44;14.13;;;9.97;;
20415;SDS011;10367;52.202;5.996;2024-03-02T07:51:17;11.40;;;8.93;;
20415;SDS011;10367;52.202;5.996;2024-03-02T07:53:45;13.90;;;9.83;;
20415;SDS011;10367;52.202;5.996;2024-03-02T07:56:14;10.13;;;8.30;;
20415;SDS011;10367;52.202;5.996;2024-03-02T07:58:49;15.67;;;10.20;;
20415;SDS011;10367;52.202;5.996;2024-03-02T08:01:18;12.27;;;9.23;;
20415;SDS011;10367;52.202;5.996;2024-03-02T08:03:47;10.27;;;8.77;;
20415;SDS011;10367;52.202;5.996;2024-03-02T08:06:18;13.53;;;9.10;;
20415;SDS011;10367;52.202;5.996;2024-03-02T08:08:48;11.60;;;8.40;;
20415;SDS011;10367;52.202;5.996;2024-03-02T08:11:17;14.80;;;9.83;;
20415;SDS011;10367;52.202;5.996;2024-03-02T08:13:46;11.33;;;8.13;;
20415;SDS011;10367;52.202;5.996;2024-03-02T08:16:14;11.63;;;9.03;;
20415;SDS011;10367;52.202;5.996;2024-03-02T08:18:46;9.83;;;8.03;;
20415;SDS011;10367;52.202;5.996;2024-03-02T08:21:16;13.50;;;10.13;;
20415;SDS011;10367;52.202;5.996;2024-03-02T08:23:46;12.03;;;9.23;;
20415;SDS011;10367;52.202;5.996;2024-03-02T08:26:15;17.10;;;10.73;;
20415;SDS011;10367;52.202;5.996;2024-03-02T08:28:44;11.07;;;8.97;;
20415;SDS011;10367;52.202;5.996;2024-03-02T08:31:13;10.53;;;8.97;;
20415;SDS011;10367;52.202;5.996;2024-03-02T08:33:41;16.50;;;10.50;;
20415;SDS011;10367;52.202;5.996;2024-03-02T08:36:10;16.33;;;10.60;;
20415;SDS011;10367;52.202;5.996;2024-03-02T08:38:39;11.40;;;9.80;;
20415;SDS011;10367;52.202;5.996;2024-03-02T08:41:09;18.13;;;11.93;;
20415;SDS011;10367;52.202;5.996;2024-03-02T08:43:40;10.43;;;9.10;;
20415;SDS011;10367;52.202;5.996;2024-03-02T08:46:10;16.83;;;11.17;;
20415;SDS011;10367;52.202;5.996;2024-03-02T08:48:38;12.63;;;10.13;;
20415;SDS011;10367;52.202;5.996;2024-03-02T08:51:08;11.43;;;9.73;;
20415;SDS011;10367;52.202;5.996;2024-03-02T08:53:37;13.13;;;10.40;;
20415;SDS011;10367;52.202;5.996;2024-03-02T08:56:06;22.30;;;12.70;;
20415;SDS011;10367;52.202;5.996;2024-03-02T08:58:36;18.70;;;8.97;;
20415;SDS011;10367;52.202;5.996;2024-03-02T09:01:05;11.83;;;10.37;;
20415;SDS011;10367;52.202;5.996;2024-03-02T09:03:35;14.93;;;10.47;;
20415;SDS011;10367;52.202;5.996;2024-03-02T09:06:04;13.50;;;10.63;;
20415;SDS011;10367;52.202;5.996;2024-03-02T09:08:33;9.53;;;8.70;;
20415;SDS011;10367;52.202;5.996;2024-03-02T09:11:03;15.67;;;11.20;;
20415;SDS011;10367;52.202;5.996;2024-03-02T09:13:32;12.70;;;9.93;;
20415;SDS011;10367;52.202;5.996;2024-03-02T09:16:03;10.50;;;9.47;;
20415;SDS011;10367;52.202;5.996;2024-03-02T09:18:32;11.80;;;10.23;;
20415;SDS011;10367;52.202;5.996;2024-03-02T09:21:01;13.87;;;11.13;;
20415;SDS011;10367;52.202;5.996;2024-03-02T09:23:31;12.97;;;10.30;;
20415;SDS011;10367;52.202;5.996;2024-03-02T09:26:00;12.13;;;10.53;;
20415;SDS011;10367;52.202;5.996;2024-03-02T09:28:28;12.07;;;10.47;;
20415;SDS011;10367;52.202;5.996;2024-03-02T09:30:57;20.77;;;13.40;;
20415;SDS011;10367;52.202;5.996;2024-03-02T09:33:28;10.87;;;9.80;;
20415;SDS011;10367;52.202;5.996;2024-03-02T09:35:57;17.67;;;12.00;;
20415;SDS011;10367;52.202;5.996;2024-03-02T09:38:26;15.37;;;11.83;;
20415;SDS011;10367;52.202;5.996;2024-03-02T09:40:55;18.00;;;12.87;;
20415;SDS011;10367;52.202;5.996;2024-03-02T09:43:23;14.07;;;11.13;;
20415;SDS011;10367;52.202;5.996;2024-03-02T09:45:52;13.57;;;11.00;;
20415;SDS011;10367;52.202;5.996;2024-03-02T09:48:21;17.83;;;11.13;;
20415;SDS011;10367;52.202;5.996;2024-03-02T09:50:51;12.30;;;10.97;;
20415;SDS011;10367;52.202;5.996;2024-03-02T09:53:20;16.77;;;12.57;;
20415;SDS011;10367;52.202;5.996;2024-03-02T09:55:51;23.47;;;14.60;;
20415;SDS011;10367;52.202;5.996;2024-03-02T09:58:19;15.20;;;11.13;;
20415;SDS011;10367;52.202;5.996;2024-03-02T10:00:48;16.70;;;12.40;;
20415;SDS011;10367;52.202;5.996;2024-03-02T10:03:18;16.17;;;12.10;;
20415;SDS011;10367;52.202;5.996;2024-03-02T10:05:48;12.40;;;11.10;;
20415;SDS011;10367;52.202;5.996;2024-03-02T10:08:18;12.73;;;10.87;;
20415;SDS011;10367;52.202;5.996;2024-03-02T10:10:46;12.90;;;11.10;;
20415;SDS011;10367;52.202;5.996;2024-03-02T10:13:15;15.43;;;12.30;;
20415;SDS011;10367;52.202;5.996;2024-03-02T10:15:45;15.17;;;11.73;;
20415;SDS011;10367;52.202;5.996;2024-03-02T10:18:13;13.17;;;11.27;;
20415;SDS011;10367;52.202;5.996;2024-03-02T10:20:54;13.67;;;12.23;;
20415;SDS011;10367;52.202;5.996;2024-03-02T10:23:24;17.30;;;13.23;;
20415;SDS011;10367;52.202;5.996;2024-03-02T10:25:53;14.67;;;12.53;;
20415;SDS011;10367;52.202;5.996;2024-03-02T10:28:24;13.57;;;12.07;;
20415;SDS011;10367;52.202;5.996;2024-03-02T10:30:55;17.57;;;12.23;;
20415;SDS011;10367;52.202;5.996;2024-03-02T10:33:24;13.33;;;12.07;;
20415;SDS011;10367;52.202;5.996;2024-03-02T10:35:53;16.07;;;12.97;;
20415;SDS011;10367;52.202;5.996;2024-03-02T10:38:24;14.97;;;11.80;;
20415;SDS011;10367;52.202;5.996;2024-03-02T10:40:53;15.73;;;12.80;;
20415;SDS011;10367;52.202;5.996;2024-03-02T10:43:24;18.20;;;14.07;;
20415;SDS011;10367;52.202;5.996;2024-03-02T10:45:53;13.53;;;12.23;;
20415;SDS011;10367;52.202;5.996;2024-03-02T10:48:25;13.87;;;12.03;;
20415;SDS011;10367;52.202;5.996;2024-03-02T10:50:55;13.27;;;11.97;;
20415;SDS011;10367;52.202;5.996;2024-03-02T10:53:29;12.33;;;11.10;;
20415;SDS011;10367;52.202;5.996;2024-03-02T10:55:58;13.33;;;12.00;;
20415;SDS011;10367;52.202;5.996;2024-03-02T10:58:31;13.53;;;12.23;;
20415;SDS011;10367;52.202;5.996;2024-03-02T11:01:02;14.30;;;12.93;;
20415;SDS011;10367;52.202;5.996;2024-03-02T11:03:33;14.60;;;13.20;;
20415;SDS011;10367;52.202;5.996;2024-03-02T11:06:05;14.00;;;12.63;;
20415;SDS011;10367;52.202;5.996;2024-03-02T11:08:38;13.47;;;12.37;;
20415;SDS011;10367;52.202;5.996;2024-03-02T11:11:11;17.67;;;14.10;;
20415;SDS011;10367;52.202;5.996;2024-03-02T11:13:46;16.17;;;13.27;;
20415;SDS011;10367;52.202;5.996;2024-03-02T11:16:19;17.93;;;13.67;;
20415;SDS011;10367;52.202;5.996;2024-03-02T11:18:57;13.03;;;12.03;;
20415;SDS011;10367;52.202;5.996;2024-03-02T11:21:27;14.47;;;13.33;;
20415;SDS011;10367;52.202;5.996;2024-03-02T11:23:57;13.47;;;12.20;;
20415;SDS011;10367;52.202;5.996;2024-03-02T11:26:26;13.13;;;12.00;;
20415;SDS011;10367;52.202;5.996;2024-03-02T11:28:55;15.00;;;13.57;;
20415;SDS011;10367;52.202;5.996;2024-03-02T11:34:29;14.67;;;13.13;;
20415;SDS011;10367;52.202;5.996;2024-03-02T11:36:58;13.90;;;12.60;;
20415;SDS011;10367;52.202;5.996;2024-03-02T11:39:29;14.97;;;13.37;;
20415;SDS011;10367;52.202;5.996;2024-03-02T11:41:58;14.30;;;13.13;;
20415;SDS011;10367;52.202;5.996;2024-03-02T11:44:27;14.37;;;13.37;;
20415;SDS011;10367;52.202;5.996;2024-03-02T11:46:58;14.67;;;13.47;;
20415;SDS011;10367;52.202;5.996;2024-03-02T11:49:36;15.10;;;13.63;;
20415;SDS011;10367;52.202;5.996;2024-03-02T11:52:06;16.10;;;13.93;;
20415;SDS011;10367;52.202;5.996;2024-03-02T11:54:38;15.47;;;13.87;;
20415;SDS011;10367;52.202;5.996;2024-03-02T11:57:14;15.77;;;14.27;;
20415;SDS011;10367;52.202;5.996;2024-03-02T11:59:43;16.77;;;15.00;;
20415;SDS011;10367;52.202;5.996;2024-03-02T12:02:14;15.60;;;14.20;;
20415;SDS011;10367;52.202;5.996;2024-03-02T12:04:45;16.53;;;14.90;;
20415;SDS011;10367;52.202;5.996;2024-03-02T12:07:18;16.07;;;14.57;;
20415;SDS011;10367;52.202;5.996;2024-03-02T12:09:49;16.17;;;14.77;;
20415;SDS011;10367;52.202;5.996;2024-03-02T12:12:28;14.57;;;13.57;;
20415;SDS011;10367;52.202;5.996;2024-03-02T12:14:57;15.70;;;14.37;;
20415;SDS011;10367;52.202;5.996;2024-03-02T12:17:27;16.13;;;14.63;;
20415;SDS011;10367;52.202;5.996;2024-03-02T12:19:57;16.10;;;14.80;;
20415;SDS011;10367;52.202;5.996;2024-03-02T12:22:30;16.00;;;14.60;;
20415;SDS011;10367;52.202;5.996;2024-03-02T12:25:01;13.73;;;12.73;;
20415;SDS011;10367;52.202;5.996;2024-03-02T12:27:30;16.43;;;14.97;;
20415;SDS011;10367;52.202;5.996;2024-03-02T12:29:59;16.03;;;14.47;;
20415;SDS011;10367;52.202;5.996;2024-03-02T12:32:28;17.37;;;15.63;;
20415;SDS011;10367;52.202;5.996;2024-03-02T12:34:57;16.20;;;14.90;;
20415;SDS011;10367;52.202;5.996;2024-03-02T12:37:26;16.73;;;15.33;;
20415;SDS011;10367;52.202;5.996;2024-03-02T12:39:55;17.40;;;15.67;;
20415;SDS011;10367;52.202;5.996;2024-03-02T12:42:25;17.40;;;15.87;;
20415;SDS011;10367;52.202;5.996;2024-03-02T12:44:54;16.43;;;15.00;;
20415;SDS011;10367;52.202;5.996;2024-03-02T12:47:23;20.80;;;15.80;;
20415;SDS011;10367;52.202;5.996;2024-03-02T12:49:52;16.70;;;15.40;;
20415;SDS011;10367;52.202;5.996;2024-03-02T12:52:21;16.83;;;15.47;;
20415;SDS011;10367;52.202;5.996;2024-03-02T12:54:50;19.93;;;16.23;;
20415;SDS011;10367;52.202;5.996;2024-03-02T12:57:19;19.03;;;17.23;;
20415;SDS011;10367;52.202;5.996;2024-03-02T12:59:49;16.10;;;14.80;;
20415;SDS011;10367;52.202;5.996;2024-03-02T13:02:18;16.47;;;15.00;;
20415;SDS011;10367;52.202;5.996;2024-03-02T13:04:52;15.13;;;13.90;;
20415;SDS011;10367;52.202;5.996;2024-03-02T13:07:21;16.40;;;14.63;;
20415;SDS011;10367;52.202;5.996;2024-03-02T13:09:51;16.80;;;15.10;;
20415;SDS011;10367;52.202;5.996;2024-03-02T13:12:22;15.93;;;14.63;;
20415;SDS011;10367;52.202;5.996;2024-03-02T13:14:54;16.57;;;15.10;;
20415;SDS011;10367;52.202;5.996;2024-03-02T13:17:22;15.50;;;14.23;;
20415;SDS011;10367;52.202;5.996;2024-03-02T13:19:51;17.87;;;16.10;;
20415;SDS011;10367;52.202;5.996;2024-03-02T13:22:21;16.50;;;15.07;;
20415;SDS011;10367;52.202;5.996;2024-03-02T13:24:50;17.33;;;15.77;;
20415;SDS011;10367;52.202;5.996;2024-03-02T13:27:21;17.50;;;15.77;;
20415;SDS011;10367;52.202;5.996;2024-03-02T13:29:50;17.17;;;15.67;;
20415;SDS011;10367;52.202;5.996;2024-03-02T13:32:20;17.07;;;15.60;;
20415;SDS011;10367;52.202;5.996;2024-03-02T13:34:51;17.67;;;16.00;;
20415;SDS011;10367;52.202;5.996;2024-03-02T13:37:20;16.67;;;15.03;;
20415;SDS011;10367;52.202;5.996;2024-03-02T13:39:49;19.67;;;17.80;;
20415;SDS011;10367;52.202;5.996;2024-03-02T13:42:18;16.57;;;15.13;;
20415;SDS011;10367;52.202;5.996;2024-03-02T13:44:47;15.53;;;14.33;;
20415;SDS011;10367;52.202;5.996;2024-03-02T13:47:18;16.93;;;15.57;;
20415;SDS011;10367;52.202;5.996;2024-03-02T13:49:49;19.13;;;17.37;;
20415;SDS011;10367;52.202;5.996;2024-03-02T13:52:18;17.10;;;15.50;;
20415;SDS011;10367;52.202;5.996;2024-03-02T13:54:47;16.43;;;15.20;;
20415;SDS011;10367;52.202;5.996;2024-03-02T13:57:16;17.87;;;16.33;;
20415;SDS011;10367;52.202;5.996;2024-03-02T13:59:50;17.20;;;15.90;;
20415;SDS011;10367;52.202;5.996;2024-03-02T14:02:20;17.90;;;16.17;;
20415;SDS011;10367;52.202;5.996;2024-03-02T14:04:50;18.83;;;17.07;;
20415;SDS011;10367;52.202;5.996;2024-03-02T14:07:18;19.20;;;17.40;;
20415;SDS011;10367;52.202;5.996;2024-03-02T14:09:47;20.07;;;18.20;;
20415;SDS011;10367;52.202;5.996;2024-03-02T14:12:16;21.33;;;19.20;;
20415;SDS011;10367;52.202;5.996;2024-03-02T14:14:45;17.70;;;16.20;;
20415;SDS011;10367;52.202;5.996;2024-03-02T14:17:13;18.03;;;16.30;;
20415;SDS011;10367;52.202;5.996;2024-03-02T14:19:42;18.03;;;16.47;;
20415;SDS011;10367;52.202;5.996;2024-03-02T14:22:13;19.23;;;17.33;;
20415;SDS011;10367;52.202;5.996;2024-03-02T14:24:44;18.43;;;16.67;;
20415;SDS011;10367;52.202;5.996;2024-03-02T14:27:13;19.53;;;17.03;;
20415;SDS011;10367;52.202;5.996;2024-03-02T14:29:58;18.73;;;17.10;;
20415;SDS011;10367;52.202;5.996;2024-03-02T14:32:27;16.50;;;15.20;;
20415;SDS011;10367;52.202;5.996;2024-03-02T14:34:56;17.87;;;16.13;;
20415;SDS011;10367;52.202;5.996;2024-03-02T14:37:26;16.37;;;15.07;;
20415;SDS011;10367;52.202;5.996;2024-03-02T14:39:55;18.00;;;16.30;;
20415;SDS011;10367;52.202;5.996;2024-03-02T14:42:24;18.90;;;17.13;;
20415;SDS011;10367;52.202;5.996;2024-03-02T14:44:55;17.73;;;16.20;;